createdAt,value
2019-04-20T00:00:06.543Z,64.34
2019-04-20T00:01:01.525Z,64.15
2019-04-20T00:02:12.418Z,64.72
2019-04-20T00:03:01.890Z,65.19
2019-04-20T00:04:19.360Z,65.38
2019-04-20T00:04:59.499Z,65.77
2019-04-20T00:05:59.754Z,66.05
2019-04-20T00:08:08.727Z,66.68
2019-04-20T00:09:12.858Z,66.78
2019-04-20T00:10:13.404Z,66.72
2019-04-20T00:11:16.050Z,66.97
2019-04-20T00:12:19.027Z,66.72
2019-04-20T00:13:42.443Z,67.35
2019-04-20T00:14:34.157Z,67.35
2019-04-20T00:15:28.137Z,66.78
2019-04-20T00:16:27.627Z,66.68
2019-04-20T00:17:28.842Z,66.87
2019-04-20T00:18:41.056Z,67.35
2019-04-20T00:19:43.972Z,67.35
2019-04-20T00:20:34.313Z,66.87
2019-04-20T00:21:27.177Z,66.78
2019-04-20T00:22:42.415Z,66.68
2019-04-20T00:23:44.957Z,66.87
2019-04-20T00:24:35.645Z,66.87
2019-04-20T00:25:54.230Z,67.25
2019-04-20T00:27:59.224Z,66.87
2019-04-20T00:29:58.538Z,67.25
2019-04-20T00:31:59.055Z,67.44
2019-04-20T00:33:30.746Z,67.16
2019-04-20T00:34:36.956Z,67.73
2019-04-20T00:35:25.073Z,67.92
2019-04-20T00:36:24.659Z,68.21
2019-04-20T00:37:25.093Z,67.82
2019-04-20T00:38:34.941Z,67.44
2019-04-20T00:39:38.617Z,67.54
2019-04-20T00:40:23.972Z,68.3
2019-04-20T00:41:27.571Z,67.92
2019-04-20T00:42:42.147Z,68.21
2019-04-20T00:43:36.068Z,68.11
2019-04-20T00:44:35.721Z,68.3
2019-04-20T00:45:35.020Z,67.92
2019-04-20T00:48:05.673Z,68.49
2019-04-20T00:49:34.413Z,68.36
2019-04-20T00:51:34.766Z,69.25
2019-04-20T00:53:20.346Z,68.87
2019-04-20T00:54:02.216Z,68.96
2019-04-20T00:55:12.759Z,69.06
2019-04-20T00:55:57.392Z,69.44
2019-04-20T00:57:20.065Z,69.69
2019-04-20T00:58:28.720Z,70.1
2019-04-20T01:00:10.817Z,70.64
2019-04-20T01:02:25.565Z,70.74
2019-04-20T01:04:14.672Z,70.45
2019-04-20T01:06:16.107Z,69.69
2019-04-20T01:07:41.890Z,70.07
2019-04-20T01:08:25.799Z,70.07
2019-04-20T01:09:24.773Z,69.79
2019-04-20T01:10:28.119Z,70.17
2019-04-20T01:11:37.498Z,69.98
2019-04-20T01:13:28.724Z,70.17
2019-04-20T01:14:40.467Z,70.07
2019-04-20T01:15:47.016Z,69.98
2019-04-20T01:16:58.648Z,69.98
2019-04-20T01:18:47.101Z,70.83
2019-04-20T01:19:42.915Z,70.64
2019-04-20T01:20:43.485Z,70.74
2019-04-20T01:21:56.917Z,71.41
2019-04-20T01:22:59.989Z,71.22
2019-04-20T01:23:56.500Z,71.02
2019-04-20T01:24:51.544Z,71.22
2019-04-20T01:25:49.078Z,71.69
2019-04-20T01:26:54.787Z,71.31
2019-04-20T01:28:27.335Z,71.22
2019-04-20T01:29:46.673Z,71.97
2019-04-20T01:30:58.012Z,71.88
2019-04-20T01:32:14.882Z,72.35
2019-04-20T01:33:49.078Z,71.97
2019-04-20T01:35:14.602Z,72.07
2019-04-20T01:37:09.163Z,72.45
2019-04-20T01:38:51.151Z,72.26
2019-04-20T01:39:53.986Z,72.45
2019-04-20T01:40:40.578Z,72.64
2019-04-20T01:41:54.654Z,72.74
2019-04-20T01:42:40.730Z,72.64
2019-04-20T01:43:40.026Z,73.11
2019-04-20T01:44:49.085Z,73.21
2019-04-20T01:45:45.976Z,74.07
2019-04-20T01:46:53.200Z,73.84
2019-04-20T01:47:52.678Z,73.97
2019-04-20T01:48:43.375Z,73.88
2019-04-20T01:49:44.719Z,73.69
2019-04-20T01:50:59.194Z,73.93
2019-04-20T01:52:06.980Z,73.74
2019-04-20T01:53:23.204Z,73.65
2019-04-20T01:55:27.437Z,73.93
2019-04-20T01:56:57.912Z,73.93
2019-04-20T01:58:29.856Z,74.69
2019-04-20T02:00:05.920Z,74.51
2019-04-20T02:00:47.817Z,74.6
2019-04-20T02:01:45.912Z,74.51
2019-04-20T02:02:55.405Z,74.22
2019-04-20T02:03:51.856Z,74.51
2019-04-20T02:04:49.211Z,74.41
2019-04-20T02:05:51.158Z,74.22
2019-04-20T02:06:55.107Z,74.6
2019-04-20T02:08:42.291Z,74.6
2019-04-20T02:09:58.210Z,75.07
2019-04-20T02:11:00.271Z,75.07
2019-04-20T02:11:48.724Z,75.26
2019-04-20T02:12:50.230Z,74.88
2019-04-20T02:13:54.937Z,75.17
2019-04-20T02:14:55.990Z,74.98
2019-04-20T02:15:54.368Z,75.07
2019-04-20T02:16:58.171Z,75.07
2019-04-20T02:18:17.413Z,75.36
2019-04-20T02:20:04.412Z,75.74
2019-04-20T02:22:02.305Z,75.84
2019-04-20T02:23:38.393Z,76.12
2019-04-20T02:24:16.374Z,76.97
2019-04-20T02:25:14.630Z,76.69
2019-04-20T02:26:17.706Z,77.36
2019-04-20T02:27:15.003Z,77.17
2019-04-20T02:31:32.175Z,77.64
2019-04-20T02:38:21.395Z,78.3
2019-04-20T02:43:37.332Z,79.5
2019-04-20T02:49:50.617Z,80.45
2019-04-20T02:55:47.434Z,81.12
2019-04-20T03:01:54.558Z,80.74
2019-04-20T03:03:25.071Z,81.49
2019-04-20T03:04:20.111Z,81.78
2019-04-20T03:07:23.084Z,82.07
2019-04-20T03:09:36.022Z,82.73
2019-04-20T03:12:15.315Z,83.16
2019-04-20T03:14:17.273Z,83.26
2019-04-20T03:16:16.184Z,83.92
2019-04-20T03:18:39.508Z,83.92
2019-04-20T03:20:21.984Z,83.54
2019-04-20T03:23:10.074Z,84.21
2019-04-20T03:25:54.101Z,84.97
2019-04-20T03:27:55.880Z,85.06
2019-04-20T03:30:00.353Z,84.97
2019-04-20T03:37:12.608Z,85.53
2019-04-20T03:39:31.169Z,86.11
2019-04-20T03:41:08.050Z,86.68
2019-04-20T03:41:58.408Z,86.49
2019-04-20T03:42:51.126Z,86.2
2019-04-20T03:43:53.983Z,86.68
2019-04-20T03:45:05.713Z,86.68
2019-04-20T03:46:06.210Z,86.58
2019-04-20T03:47:05.150Z,87.24
2019-04-20T03:48:33.266Z,87.24
2019-04-20T03:50:50.239Z,87.34
2019-04-20T03:53:12.623Z,87.53
2019-04-20T03:54:54.115Z,88.57
2019-04-20T03:56:48.988Z,88.48
2019-04-20T03:59:00.781Z,88.57
2019-04-20T04:01:03.694Z,88.95
2019-04-20T04:04:21.028Z,89.53
2019-04-20T04:06:04.922Z,90.28
2019-04-20T04:07:01.763Z,89.81
2019-04-20T04:08:16.863Z,90.19
2019-04-20T04:09:36.941Z,90.19
2019-04-20T04:11:34.724Z,90.66
2019-04-20T04:12:42.909Z,90.81
2019-04-20T04:13:33.898Z,90.95
2019-04-20T04:14:32.895Z,90.85
2019-04-20T04:16:49.701Z,91.38
2019-04-20T04:17:43.172Z,91.33
2019-04-20T04:18:45.866Z,91.38
2019-04-20T04:19:49.078Z,91.28
2019-04-20T04:20:51.942Z,91.47
2019-04-20T04:22:03.829Z,92.04
2019-04-20T04:23:54.137Z,91.75
2019-04-20T04:25:24.836Z,91.8
2019-04-20T04:27:05.528Z,91.99
2019-04-20T04:29:19.003Z,91.85
2019-04-20T04:31:11.807Z,92.14
2019-04-20T04:34:11.885Z,92.47
2019-04-20T04:35:56.363Z,92.85
2019-04-20T04:38:05.643Z,92.47
2019-04-20T04:40:30.799Z,92.37
2019-04-20T04:43:10.019Z,92.28
2019-04-20T04:44:48.146Z,92.18
2019-04-20T04:45:30.414Z,92.28
2019-04-20T04:46:42.123Z,91.8
2019-04-20T04:47:22.219Z,91.52
2019-04-20T04:48:35.490Z,90.05
2019-04-20T04:49:36.451Z,89.57
2019-04-20T04:50:31.170Z,88.09
2019-04-20T04:51:40.238Z,86.19
2019-04-20T04:52:45.237Z,84.72
2019-04-20T04:53:54.987Z,83.33
2019-04-20T04:55:10.719Z,81.09
2019-04-20T04:56:13.062Z,80.38
2019-04-20T04:58:00.677Z,77.32
2019-04-20T04:59:14.890Z,76.94
2019-04-20T05:00:17.537Z,75.32
2019-04-20T05:01:14.337Z,74.79
2019-04-20T05:02:02.075Z,73.68
2019-04-20T05:03:22.841Z,71.62
2019-04-20T05:05:40.941Z,68.18
2019-04-20T05:07:34.160Z,66.53
2019-04-20T05:08:45.219Z,64.65
2019-04-20T05:09:30.076Z,63.64
2019-04-20T05:10:28.835Z,63.32
2019-04-20T05:11:30.373Z,64.37
2019-04-20T05:12:35.825Z,64.37
2019-04-20T05:13:45.659Z,66.31
2019-04-20T05:14:57.800Z,67.74
2019-04-20T05:16:23.348Z,68.57
2019-04-20T05:18:41.120Z,67.71
2019-04-20T05:20:52.902Z,66.98
2019-04-20T05:23:08.395Z,66.98
2019-04-20T05:25:01.702Z,64.91
2019-04-20T05:27:18.886Z,63.13
2019-04-20T05:28:58.790Z,62.3
2019-04-20T05:29:39.781Z,61.57
2019-04-20T05:30:52.416Z,61.28
2019-04-20T05:31:54.267Z,60.64
2019-04-20T05:34:52.218Z,61.47
2019-04-20T05:37:20.577Z,61.72
2019-04-20T05:39:37.827Z,60.39
2019-04-20T05:43:41.004Z,57.48
2019-04-20T05:45:41.214Z,54.79
2019-04-20T05:47:42.727Z,55.15
2019-04-20T05:49:39.628Z,54.99
2019-04-20T05:54:01.998Z,54.99
2019-04-20T05:56:30.320Z,53.38
2019-04-20T05:58:59.289Z,51.97
2019-04-20T06:01:11.956Z,50.46
2019-04-20T06:03:25.713Z,48.88
2019-04-20T06:06:13.673Z,47.46
2019-04-20T06:08:31.885Z,48.59
2019-04-20T06:11:20.576Z,46.89
2019-04-20T06:13:37.718Z,46.53
2019-04-20T06:15:11.557Z,46.14
2019-04-20T06:17:31.215Z,44.65
2019-04-20T06:19:43.621Z,43.8
2019-04-20T06:22:48.216Z,45.8
2019-04-20T06:25:43.637Z,44.17
2019-04-20T06:28:21.887Z,42.4
2019-04-20T06:30:18.741Z,42.57
2019-04-20T06:32:38.567Z,42.11
2019-04-20T06:35:40.409Z,45.29
2019-04-20T06:38:09.783Z,45.87
2019-04-20T06:44:08.024Z,44.89
2019-04-20T06:47:14.197Z,46.64
2019-04-20T06:49:50.248Z,46.26
2019-04-20T06:54:02.721Z,45.25
2019-04-20T06:56:28.869Z,45.39
2019-04-20T06:59:25.619Z,43.85
2019-04-20T07:02:02.614Z,42.57
2019-04-20T07:04:59.188Z,42.38
2019-04-20T07:10:31.177Z,39.39
2019-04-20T07:12:40.757Z,38.54
2019-04-20T07:14:02.742Z,41.19
2019-04-20T07:15:36.281Z,42.02
2019-04-20T07:17:53.177Z,39.18
2019-04-20T07:20:15.303Z,37.67
2019-04-20T07:23:40.328Z,39.22
2019-04-20T07:26:09.131Z,38.45
2019-04-20T07:28:38.014Z,38.35
2019-04-20T07:31:12.953Z,37.38
2019-04-20T07:33:26.516Z,36.66
2019-04-20T07:35:30.145Z,39.66
2019-04-20T07:38:39.469Z,41.36
2019-04-20T07:40:58.578Z,39.11
2019-04-20T07:43:38.873Z,38.71
2019-04-20T07:48:36.105Z,38.68
2019-04-20T07:50:34.580Z,39.01
2019-04-20T07:51:36.701Z,39.86
2019-04-20T07:52:50.760Z,39.28
2019-04-20T07:55:25.589Z,37.87
2019-04-20T07:57:37.338Z,37.62
2019-04-20T08:00:48.033Z,37.58
2019-04-20T08:03:37.901Z,37.15
2019-04-20T08:05:33.237Z,38.66
2019-04-20T08:06:42.938Z,37.7
2019-04-20T08:07:49.339Z,37.05
2019-04-20T08:09:32.340Z,37.24
2019-04-20T08:10:53.490Z,37.42
2019-04-20T08:13:16.027Z,38.16
2019-04-20T08:15:48.723Z,37.32
2019-04-20T08:18:43.874Z,37.44
2019-04-20T08:20:52.226Z,36
2019-04-20T08:23:04.514Z,37.96
2019-04-20T08:25:01.075Z,38.74
2019-04-20T08:26:20.091Z,39.22
2019-04-20T08:27:09.833Z,39.41
2019-04-20T08:27:59.527Z,38.66
2019-04-20T08:29:17.793Z,39.24
2019-04-20T08:31:13.752Z,38.7
2019-04-20T08:33:02.373Z,40.96
2019-04-20T08:35:31.724Z,40.26
2019-04-20T08:37:46.845Z,39.22
2019-04-20T08:41:02.401Z,39.82
2019-04-20T08:43:37.568Z,41.98
2019-04-20T08:46:40.173Z,40.17
2019-04-20T08:49:48.992Z,40.67
2019-04-20T08:52:46.330Z,42.85
2019-04-20T08:54:57.572Z,43.94
2019-04-20T08:56:28.986Z,45
2019-04-20T08:57:07.495Z,44.04
2019-04-20T08:58:07.033Z,43.67
2019-04-20T08:59:06.707Z,42.66
2019-04-20T09:00:09.118Z,42.46
2019-04-20T09:01:14.066Z,41.6
2019-04-20T09:02:15.677Z,41.83
2019-04-20T09:03:21.848Z,42.27
2019-04-20T09:04:33.603Z,42.66
2019-04-20T09:05:48.653Z,42.46
2019-04-20T09:07:13.118Z,42.25
2019-04-20T09:08:08.017Z,40.94
2019-04-20T09:09:52.369Z,40.77
2019-04-20T09:12:00.598Z,39.92
2019-04-20T09:13:31.928Z,40.96
2019-04-20T09:14:10.558Z,40.36
2019-04-20T09:15:08.385Z,40.67
2019-04-20T09:16:06.879Z,40.09
2019-04-20T09:17:22.476Z,39.12
2019-04-20T09:18:25.892Z,38.97
2019-04-20T09:19:26.975Z,38.48
2019-04-20T09:20:43.388Z,38.58
2019-04-20T09:21:54.806Z,38.91
2019-04-20T09:23:36.156Z,41.77
2019-04-20T09:26:08.675Z,41.92
2019-04-20T09:27:40.440Z,42.97
2019-04-20T09:30:31.816Z,43.27
2019-04-20T09:32:11.042Z,42.18
2019-04-20T09:34:15.300Z,41.4
2019-04-20T09:36:23.514Z,40.72
2019-04-20T09:38:18.904Z,42.88
2019-04-20T09:39:52.802Z,43.15
2019-04-20T09:41:59.557Z,42.19
2019-04-20T09:43:15.738Z,40.15
2019-04-20T09:44:13.541Z,39.01
2019-04-20T09:45:30.935Z,38.93
2019-04-20T09:46:14.251Z,38.46
2019-04-20T09:47:23.221Z,38
2019-04-20T09:48:31.673Z,37.54
2019-04-20T09:49:42.267Z,36.96
2019-04-20T09:51:29.993Z,37.24
2019-04-20T09:53:08.618Z,36.46
2019-04-20T09:54:45.085Z,35.8
2019-04-20T09:56:35.549Z,34.67
2019-04-20T09:58:24.524Z,35.8
2019-04-20T10:00:15.172Z,36.22
2019-04-20T10:01:41.755Z,34.97
2019-04-20T10:02:32.546Z,35.53
2019-04-20T10:03:25.072Z,35.82
2019-04-20T10:04:39.777Z,35.45
2019-04-20T10:05:38.798Z,35.28
2019-04-20T10:06:32.156Z,34.99
2019-04-20T10:07:31.105Z,34.79
2019-04-20T10:08:24.308Z,35.37
2019-04-20T10:09:38.050Z,35.84
2019-04-20T10:10:40.443Z,35.47
2019-04-20T10:11:25.422Z,35.58
2019-04-20T10:12:24.714Z,34.99
2019-04-20T10:13:25.150Z,35.37
2019-04-20T10:14:25.020Z,35.74
2019-04-20T10:15:29.946Z,35.34
2019-04-20T10:16:24.447Z,35.63
2019-04-20T10:17:28.363Z,35.84
2019-04-20T10:18:25.622Z,34.97
2019-04-20T10:19:34.466Z,35.06
2019-04-20T10:20:41.448Z,34.78
2019-04-20T10:22:25.003Z,35.08
2019-04-20T10:23:25.091Z,35.26
2019-04-20T10:24:24.672Z,36.57
2019-04-20T10:25:25.003Z,36.44
2019-04-20T10:26:25.144Z,36.52
2019-04-20T10:27:24.756Z,36.81
2019-04-20T10:28:25.866Z,37.29
2019-04-20T10:29:26.070Z,35.94
2019-04-20T10:30:26.289Z,36.43
2019-04-20T10:31:24.867Z,35.19
2019-04-20T10:33:26.202Z,33.74
2019-04-20T10:34:26.566Z,33.34
2019-04-20T10:35:25.748Z,34.59
2019-04-20T10:36:39.695Z,34.59
2019-04-20T10:37:27.232Z,34.52
2019-04-20T10:38:25.739Z,34.8
2019-04-20T10:39:25.089Z,34.9
2019-04-20T10:40:54.567Z,35.19
2019-04-20T10:41:57.435Z,35.77
2019-04-20T10:42:48.494Z,35.21
2019-04-20T10:43:47.434Z,34.24
2019-04-20T10:44:48.221Z,33.74
2019-04-20T10:45:48.622Z,34.11
2019-04-20T10:47:47.763Z,33.86
2019-04-20T10:48:54.821Z,33.66
2019-04-20T10:49:47.595Z,33.37
2019-04-20T10:51:03.093Z,33.1
2019-04-20T10:51:47.652Z,33.55
2019-04-20T10:52:48.219Z,34.5
2019-04-20T10:53:48.887Z,34.21
2019-04-20T10:54:48.085Z,33.44
2019-04-20T10:55:47.757Z,33.34
2019-04-20T10:56:48.183Z,33.26
2019-04-20T10:57:49.252Z,33.45
2019-04-20T10:58:47.899Z,33.76
2019-04-20T10:59:48.148Z,32.99
2019-04-20T11:00:50.039Z,32.39
2019-04-20T11:01:48.180Z,32.59
2019-04-20T11:02:51.162Z,31.35
2019-04-20T11:03:50.326Z,30.38
2019-04-20T11:06:02.851Z,31.43
2019-04-20T11:06:50.299Z,32.03
2019-04-20T11:07:48.788Z,31.83
2019-04-20T11:08:49.056Z,31.63
2019-04-20T11:10:02.034Z,32.12
2019-04-20T11:11:10.656Z,32.28
2019-04-20T11:11:50.704Z,32.57
2019-04-20T11:12:50.819Z,33.23
2019-04-20T11:13:51.109Z,33.44
2019-04-20T11:14:50.427Z,32.76
2019-04-20T11:15:50.848Z,32.28
2019-04-20T11:16:50.930Z,31.9
2019-04-20T11:17:49.702Z,30.56
2019-04-20T11:18:49.764Z,30.16
2019-04-20T11:20:05.379Z,29.21
2019-04-20T11:20:51.025Z,29.69
2019-04-20T11:21:50.625Z,31.33
2019-04-20T11:22:50.971Z,32.59
2019-04-20T11:23:50.001Z,33.36
2019-04-20T11:24:50.626Z,32.41
2019-04-20T11:25:50.743Z,32.31
2019-04-20T11:26:49.928Z,32.41
2019-04-20T11:27:50.536Z,33.47
2019-04-20T11:28:50.771Z,33.94
2019-04-20T11:29:50.004Z,34.32
2019-04-20T11:30:50.485Z,33.74
2019-04-20T11:31:55.749Z,33.76
2019-04-20T11:32:51.900Z,33.66
2019-04-20T11:33:50.494Z,33.94
2019-04-20T11:36:05.187Z,34.69
2019-04-20T11:36:51.314Z,35.17
2019-04-20T11:37:51.523Z,35.46
2019-04-20T11:38:51.466Z,35.17
2019-04-20T11:39:50.779Z,35.77
2019-04-20T11:41:13.365Z,35.1
2019-04-20T11:41:51.679Z,34.72
2019-04-20T11:42:50.387Z,34.9
2019-04-20T11:43:51.827Z,35.11
2019-04-20T11:44:51.248Z,34.92
2019-04-20T11:45:51.346Z,35.3
2019-04-20T11:46:50.779Z,35.5
2019-04-20T11:47:51.916Z,35.5
2019-04-20T11:48:51.696Z,35.4
2019-04-20T11:49:51.806Z,35.3
2019-04-20T11:52:05.536Z,35.78
2019-04-20T11:52:54.014Z,35.59
2019-04-20T11:53:50.404Z,35.13
2019-04-20T11:54:51.001Z,34.64
2019-04-20T11:55:52.081Z,34.84
2019-04-20T11:56:51.489Z,35.32
2019-04-20T11:57:51.857Z,35.13
2019-04-20T11:59:50.895Z,35.03
2019-04-20T12:01:08.633Z,35.11
2019-04-20T12:02:02.291Z,35.48
2019-04-20T12:02:58.612Z,35.65
2019-04-20T12:05:35.097Z,36.33
2019-04-20T12:07:28.606Z,35.75
2019-04-20T12:08:13.661Z,35.77
2019-04-20T12:09:13.357Z,35.75
2019-04-20T12:10:23.812Z,35.28
2019-04-20T12:11:37.021Z,35.38
2019-04-20T12:12:50.289Z,35.48
2019-04-20T12:13:41.071Z,35.19
2019-04-20T12:14:41.258Z,35.38
2019-04-20T12:15:41.447Z,35.69
2019-04-20T12:16:42.071Z,35.38
2019-04-20T12:17:55.797Z,35.96
2019-04-20T12:18:42.123Z,36.15
2019-04-20T12:19:42.216Z,36.13
2019-04-20T12:20:42.843Z,35.94
2019-04-20T12:21:42.148Z,35.77
2019-04-20T12:23:42.708Z,35.4
2019-04-20T12:24:42.691Z,35.3
2019-04-20T12:25:44.572Z,35.21
2019-04-20T12:26:42.674Z,35.4
2019-04-20T12:27:53.750Z,35.21
2019-04-20T12:28:43.355Z,35.5
2019-04-20T12:29:41.436Z,35.3
2019-04-20T12:31:44.213Z,36.06
2019-04-20T12:32:52.455Z,36.06
2019-04-20T12:33:56.198Z,36.07
2019-04-20T12:34:41.728Z,36.27
2019-04-20T12:35:42.767Z,35.32
2019-04-20T12:36:42.785Z,35.52
2019-04-20T12:37:43.030Z,35.8
2019-04-20T12:38:41.659Z,34.84
2019-04-20T12:39:42.833Z,34.55
2019-04-20T12:40:42.362Z,35.32
2019-04-20T12:41:53.268Z,34.92
2019-04-20T12:42:43.150Z,35.21
2019-04-20T12:44:42.067Z,35.3
2019-04-20T12:45:42.411Z,35.02
2019-04-20T12:46:41.860Z,35.11
2019-04-20T12:47:42.064Z,34.63
2019-04-20T12:48:42.107Z,35.48
2019-04-20T12:49:56.610Z,35.59
2019-04-20T12:50:42.037Z,34.92
2019-04-20T12:52:44.182Z,35.38
2019-04-20T12:54:46.600Z,35.4
2019-04-20T12:55:44.322Z,35.3
2019-04-20T12:57:43.065Z,33.95
2019-04-20T12:58:45.867Z,33.87
2019-04-20T12:59:47.683Z,34.44
2019-04-20T13:00:43.594Z,34.53
2019-04-20T13:01:43.604Z,34.45
2019-04-20T13:02:43.555Z,34.64
2019-04-20T13:03:43.441Z,34.44
2019-04-20T13:04:57.441Z,34.34
2019-04-20T13:05:43.582Z,34.53
2019-04-20T13:06:43.308Z,34.42
2019-04-20T13:07:53.139Z,34.72
2019-04-20T13:08:53.687Z,34.8
2019-04-20T13:09:44.287Z,34.53
2019-04-20T13:10:42.629Z,34.34
2019-04-20T13:11:59.031Z,34.8
2019-04-20T13:12:44.551Z,34.9
2019-04-20T13:13:44.188Z,35.1
2019-04-20T13:14:42.581Z,35.11
2019-04-20T13:15:42.976Z,34.63
2019-04-20T13:16:44.053Z,35
2019-04-20T13:17:42.638Z,34.9
2019-04-20T13:18:43.659Z,34.61
2019-04-20T13:19:45.036Z,34.61
2019-04-20T13:20:44.189Z,34.7
2019-04-20T13:21:43.421Z,34.42
2019-04-20T13:22:44.304Z,34.9
2019-04-20T13:23:43.065Z,34.52
2019-04-20T13:24:43.431Z,34.61
2019-04-20T13:25:43.661Z,34.59
2019-04-20T13:26:43.123Z,35.27
2019-04-20T13:27:43.369Z,36.06
2019-04-20T13:28:43.725Z,36.73
2019-04-20T13:29:46.031Z,35.88
2019-04-20T13:30:44.335Z,36.07
2019-04-20T13:31:44.439Z,36.17
2019-04-20T13:32:43.981Z,35.98
2019-04-20T13:33:43.669Z,35.21
2019-04-20T13:34:43.254Z,35.86
2019-04-20T13:35:43.853Z,35.86
2019-04-20T13:36:58.136Z,35.77
2019-04-20T13:37:46.781Z,36.06
2019-04-20T13:38:44.055Z,36.35
2019-04-20T13:39:43.276Z,36.54
2019-04-20T13:40:44.199Z,35.94
2019-04-20T13:41:56.002Z,35.94
2019-04-20T13:42:43.910Z,35.75
2019-04-20T13:43:44.288Z,36.04
2019-04-20T13:44:43.530Z,34.98
2019-04-20T13:46:43.365Z,35.56
2019-04-20T13:48:44.716Z,34.78
2019-04-20T13:49:43.441Z,34.4
2019-04-20T13:50:44.708Z,34.59
2019-04-20T13:51:44.562Z,34.59
2019-04-20T13:52:58.571Z,34.4
2019-04-20T13:53:43.745Z,33.84
2019-04-20T13:54:45.227Z,33.65
2019-04-20T13:55:43.673Z,33.84
2019-04-20T13:56:44.160Z,34.03
2019-04-20T13:57:44.210Z,34.03
2019-04-20T13:58:43.708Z,33.94
2019-04-20T13:59:44.395Z,33.73
2019-04-20T14:00:44.827Z,33.82
2019-04-20T14:01:44.504Z,33.73
2019-04-20T14:02:44.995Z,34.21
2019-04-20T14:03:45.246Z,33.74
2019-04-20T14:04:44.478Z,33.82
2019-04-20T14:05:45.037Z,33.94
2019-04-20T14:06:43.905Z,33.82
2019-04-20T14:07:45.190Z,34.4
2019-04-20T14:08:59.118Z,34.3
2019-04-20T14:09:44.033Z,34.69
2019-04-20T14:10:45.077Z,33.63
2019-04-20T14:11:45.275Z,34.52
2019-04-20T14:13:02.960Z,33.36
2019-04-20T14:14:01.211Z,33.65
2019-04-20T14:14:50.933Z,33.37
2019-04-20T14:15:50.983Z,33.28
2019-04-20T14:16:50.441Z,32.12
2019-04-20T14:17:51.024Z,32.41
2019-04-20T14:18:51.062Z,32.6
2019-04-20T14:19:50.488Z,32.41
2019-04-20T14:21:50.579Z,32.59
2019-04-20T14:22:52.234Z,32.68
2019-04-20T14:23:51.056Z,32.49
2019-04-20T14:24:51.360Z,32.1
2019-04-20T14:25:51.480Z,32.2
2019-04-20T14:27:04.692Z,32.59
2019-04-20T14:27:51.131Z,32.87
2019-04-20T14:28:51.506Z,32.87
2019-04-20T14:29:51.129Z,32.1
2019-04-20T14:30:50.281Z,32.49
2019-04-20T14:32:50.613Z,33.55
2019-04-20T14:33:51.206Z,33.07
2019-04-20T14:34:51.439Z,32.78
2019-04-20T14:35:50.856Z,32.31
2019-04-20T14:36:51.219Z,32.59
2019-04-20T14:37:50.298Z,32.59
2019-04-20T14:39:50.486Z,31.52
2019-04-20T14:40:52.228Z,31.62
2019-04-20T14:41:51.970Z,31.62
2019-04-20T14:43:05.098Z,31.91
2019-04-20T14:43:51.381Z,31.81
2019-04-20T14:44:50.472Z,31.35
2019-04-20T14:45:50.601Z,31.35
2019-04-20T14:46:52.089Z,31.14
2019-04-20T14:47:51.696Z,31.15
2019-04-20T14:48:52.407Z,31.14
2019-04-20T14:49:51.072Z,30.94
2019-04-20T14:50:52.079Z,31.14
2019-04-20T14:51:50.644Z,31.33
2019-04-20T14:52:51.759Z,31.14
2019-04-20T14:53:51.917Z,31.14
2019-04-20T14:54:53.191Z,31.33
2019-04-20T14:55:51.765Z,31.43
2019-04-20T14:58:05.759Z,31.51
2019-04-20T14:58:51.753Z,31.22
2019-04-20T14:59:51.955Z,31.51
2019-04-20T15:00:56.556Z,31.7
2019-04-20T15:01:50.894Z,31.8
2019-04-20T15:02:51.934Z,31.14
2019-04-20T15:04:04.679Z,31.12
2019-04-20T15:04:52.846Z,31.32
2019-04-20T15:05:51.227Z,31.41
2019-04-20T15:06:51.147Z,31.41
2019-04-20T15:07:51.294Z,31.43
2019-04-20T15:09:51.245Z,31.12
2019-04-20T15:10:52.126Z,30.56
2019-04-20T15:11:51.137Z,29.97
2019-04-20T15:13:02.753Z,30.26
2019-04-20T15:13:51.395Z,30.26
2019-04-20T15:14:52.755Z,30.83
2019-04-20T15:15:52.618Z,30.45
2019-04-20T15:16:51.268Z,29.77
2019-04-20T15:17:51.473Z,28.81
2019-04-20T15:18:55.047Z,29
2019-04-20T15:19:52.036Z,29
2019-04-20T15:20:51.387Z,28.04
2019-04-20T15:22:53.673Z,28.14
2019-04-20T15:23:51.434Z,28.14
2019-04-20T15:24:51.856Z,28.04
2019-04-20T15:25:52.949Z,28.14
2019-04-20T15:26:52.141Z,28.62
2019-04-20T15:27:52.492Z,28.14
2019-04-20T15:28:52.839Z,28.04
2019-04-20T15:30:06.560Z,27.75
2019-04-20T15:30:52.408Z,28.23
2019-04-20T15:31:52.528Z,28.04
2019-04-20T15:32:52.416Z,28.23
2019-04-20T15:33:53.205Z,28.52
2019-04-20T15:34:52.930Z,28.33
2019-04-20T15:35:52.751Z,28.52
2019-04-20T15:36:52.250Z,27.85
2019-04-20T15:37:52.954Z,28.42
2019-04-20T15:39:52.994Z,29.1
2019-04-20T15:40:52.954Z,28.81
2019-04-20T15:41:52.006Z,28.7
2019-04-20T15:43:12.230Z,28.91
2019-04-20T15:43:52.904Z,28.89
2019-04-20T15:44:53.275Z,28.99
2019-04-20T15:46:07.565Z,29.57
2019-04-20T15:46:53.427Z,28.81
2019-04-20T15:47:52.536Z,29.38
2019-04-20T15:48:52.713Z,28.8
2019-04-20T15:49:53.497Z,28.89
2019-04-20T15:51:52.453Z,28.8
2019-04-20T15:52:57.271Z,28.61
2019-04-20T15:53:53.319Z,29.46
2019-04-20T15:54:52.189Z,29.18
2019-04-20T15:55:55.554Z,29.17
2019-04-20T15:57:07.486Z,29.17
2019-04-20T15:57:53.402Z,29.65
2019-04-20T15:58:52.902Z,29.18
2019-04-20T15:59:53.032Z,29.47
2019-04-20T16:00:54.788Z,28.7
2019-04-20T16:02:07.313Z,28.61
2019-04-20T16:02:53.796Z,28.88
2019-04-20T16:03:53.525Z,29.08
2019-04-20T16:04:54.347Z,28.8
2019-04-20T16:05:53.834Z,29.18
2019-04-20T16:06:53.028Z,29.28
2019-04-20T16:08:01.900Z,28.99
2019-04-20T16:08:54.329Z,28.89
2019-04-20T16:09:54.930Z,29.08
2019-04-20T16:10:53.386Z,29.18
2019-04-20T16:11:53.269Z,28.7
2019-04-20T16:13:16.938Z,28.89
2019-04-20T16:13:57.773Z,29.18
2019-04-20T16:14:53.787Z,27.82
2019-04-20T16:15:54.011Z,27.83
2019-04-20T16:16:53.182Z,27.83
2019-04-20T16:18:07.416Z,28.02
2019-04-20T16:18:53.160Z,28.2
2019-04-20T16:20:08.148Z,28.4
2019-04-20T16:21:07.702Z,28.11
2019-04-20T16:21:54.325Z,28.69
2019-04-20T16:22:54.599Z,28.3
2019-04-20T16:23:54.957Z,27.92
2019-04-20T16:24:54.160Z,27.92
2019-04-20T16:25:53.510Z,27.82
2019-04-20T16:27:09.548Z,28.19
2019-04-20T16:27:54.258Z,28.2
2019-04-20T16:28:53.605Z,28.2
2019-04-20T16:29:54.045Z,28.4
2019-04-20T16:30:54.142Z,28.69
2019-04-20T16:31:54.589Z,28.78
2019-04-20T16:32:54.925Z,28.97
2019-04-20T16:33:58.772Z,29.35
2019-04-20T16:34:56.102Z,29.25
2019-04-20T16:35:54.784Z,29.44
2019-04-20T16:37:55.948Z,29.25
2019-04-20T16:39:54.853Z,29.63
2019-04-20T16:40:54.950Z,30.31
2019-04-20T16:41:53.986Z,30.21
2019-04-20T16:43:17.558Z,30.5
2019-04-20T16:43:55.349Z,30.4
2019-04-20T16:44:53.895Z,31.18
2019-04-20T16:45:55.279Z,31.37
2019-04-20T16:46:54.582Z,31.85
2019-04-20T16:47:54.881Z,31.95
2019-04-20T16:48:55.131Z,31.95
2019-04-20T16:49:55.225Z,31.75
2019-04-20T16:50:55.465Z,32.31
2019-04-20T16:51:55.076Z,32.41
2019-04-20T16:52:55.140Z,32.98
2019-04-20T16:53:54.396Z,33.28
2019-04-20T16:54:54.130Z,33.66
2019-04-20T16:55:55.192Z,33.75
2019-04-20T16:56:55.400Z,33.75
2019-04-20T16:57:55.689Z,33.75
2019-04-20T16:59:10.213Z,34.14
2019-04-20T16:59:59.843Z,34.05
2019-04-20T17:00:54.277Z,34.43
2019-04-20T17:01:54.298Z,34.43
2019-04-20T17:02:54.664Z,34.43
2019-04-20T17:04:13.360Z,34.53
2019-04-20T17:04:57.164Z,34.43
2019-04-20T17:05:54.410Z,34.33
2019-04-20T17:06:54.417Z,34.43
2019-04-20T17:07:55.542Z,34.33
2019-04-20T17:08:54.648Z,34.33
2019-04-20T17:09:55.898Z,34.7
2019-04-20T17:10:55.827Z,35
2019-04-20T17:11:54.539Z,34.99
2019-04-20T17:12:56.054Z,35.1
2019-04-20T17:14:01.378Z,34.91
2019-04-20T17:15:09.736Z,35.57
2019-04-20T17:15:55.422Z,34.99
2019-04-20T17:16:55.877Z,35.08
2019-04-20T17:17:58.877Z,34.99
2019-04-20T17:18:55.286Z,35.18
2019-04-20T17:19:55.898Z,35.66
2019-04-20T17:20:56.951Z,35.47
2019-04-20T17:21:57.240Z,35.66
2019-04-20T17:22:56.099Z,35.76
2019-04-20T17:23:55.640Z,35.66
2019-04-20T17:25:55.620Z,36.05
2019-04-20T17:26:55.696Z,35.64
2019-04-20T17:27:55.478Z,35.93
2019-04-20T17:28:57.976Z,35.64
2019-04-20T17:30:10.492Z,36.22
2019-04-20T17:30:56.736Z,36.41
2019-04-20T17:31:56.021Z,36.32
2019-04-20T17:32:55.732Z,36.9
2019-04-20T17:34:24.774Z,36.7
2019-04-20T17:35:51.120Z,36.51
2019-04-20T17:36:38.750Z,36.51
2019-04-20T17:37:41.517Z,36.49
2019-04-20T17:38:44.414Z,36.2
2019-04-20T17:40:06.265Z,36.49